createdAt,value
2019-04-13T00:02:22.735Z,2.60
2019-04-13T00:05:07.511Z,2.60
2019-04-13T00:07:37.255Z,2.50
2019-04-13T00:10:07.551Z,2.50
2019-04-13T00:12:37.554Z,2.50
2019-04-13T00:15:08.810Z,2.40
2019-04-13T00:17:38.573Z,2.40
2019-04-13T00:20:08.696Z,2.40
2019-04-13T00:22:38.520Z,2.40
2019-04-13T00:25:08.831Z,2.50
2019-04-13T00:27:39.599Z,2.60
2019-04-13T00:30:09.588Z,2.50
2019-04-13T00:32:39.394Z,2.50
2019-04-13T00:35:09.299Z,2.50
2019-04-13T00:37:39.044Z,2.40
2019-04-13T00:40:09.228Z,2.30
2019-04-13T00:42:39.131Z,2.20
2019-04-13T00:45:09.154Z,2.30
2019-04-13T00:47:38.932Z,2.20
2019-04-13T00:50:08.902Z,2.10
2019-04-13T00:52:38.647Z,2.10
2019-04-13T00:55:08.717Z,2.20
2019-04-13T00:57:38.521Z,2.20
2019-04-13T01:00:08.776Z,2.10
2019-04-13T01:02:38.534Z,2.10
2019-04-13T01:05:08.755Z,2.10
2019-04-13T01:07:38.511Z,2.10
2019-04-13T01:10:08.322Z,2.10
2019-04-13T01:12:38.486Z,1.90
2019-04-13T01:15:08.396Z,1.90
2019-04-13T01:17:38.207Z,1.90
2019-04-13T01:20:09.535Z,1.80
2019-04-13T01:22:39.274Z,1.70
2019-04-13T01:25:09.202Z,1.70
2019-04-13T01:27:39.116Z,1.70
2019-04-13T01:30:09.864Z,1.60
2019-04-13T01:32:39.590Z,1.70
2019-04-13T01:35:09.871Z,1.70
2019-04-13T01:37:39.597Z,1.70
2019-04-13T01:40:09.598Z,1.70
2019-04-13T01:42:39.628Z,1.60
2019-04-13T01:45:09.469Z,1.60
2019-04-13T01:47:39.199Z,1.60
2019-04-13T01:50:10.181Z,1.60
2019-04-13T01:52:39.929Z,1.60
2019-04-13T01:55:09.648Z,1.50
2019-04-13T01:57:39.549Z,1.50
2019-04-13T02:00:11.219Z,1.50
2019-04-13T02:02:51.752Z,1.60
2019-04-13T02:05:44.594Z,1.40
2019-04-13T02:08:42.977Z,1.40
2019-04-13T02:11:18.569Z,1.40
2019-04-13T02:13:48.465Z,1.30
2019-04-13T02:16:18.690Z,1.20
2019-04-13T02:18:48.520Z,1.20
2019-04-13T02:21:18.467Z,1.20
2019-04-13T02:23:48.265Z,1.20
2019-04-13T02:26:20.171Z,1.20
2019-04-13T02:28:49.965Z,1.10
2019-04-13T02:31:19.907Z,1.20
2019-04-13T02:33:49.669Z,1.20
2019-04-13T02:36:19.560Z,1.10
2019-04-13T02:38:49.351Z,1.00
2019-04-13T02:41:19.449Z,1.00
2019-04-13T02:43:49.334Z,1.00
2019-04-13T02:46:19.156Z,1.00
2019-04-13T02:48:49.042Z,1.00
2019-04-13T02:51:19.022Z,1.00
2019-04-13T02:53:48.829Z,1.10
2019-04-13T02:56:18.951Z,1.10
2019-04-13T02:58:48.867Z,1.10
2019-04-13T03:01:18.642Z,1.10
2019-04-13T03:03:49.038Z,1.10
2019-04-13T03:06:19.175Z,1.00
2019-04-13T03:08:48.997Z,1.00
2019-04-13T03:11:18.814Z,1.10
2019-04-13T03:13:49.052Z,1.00
2019-04-13T03:16:34.502Z,1.00
2019-04-13T03:19:16.282Z,1.00
2019-04-13T03:21:46.064Z,0.90
2019-04-13T03:24:16.140Z,1.00
2019-04-13T03:26:46.029Z,1.00
2019-04-13T03:29:15.901Z,1.00
2019-04-13T03:31:45.719Z,1.00
2019-04-13T03:34:17.618Z,1.10
2019-04-13T03:36:47.410Z,1.10
2019-04-13T03:39:17.187Z,1.20
2019-04-13T03:41:47.135Z,1.10
2019-04-13T03:44:16.948Z,1.20
2019-04-13T03:46:46.750Z,1.30
2019-04-13T03:49:16.605Z,1.20
2019-04-13T03:51:46.394Z,1.30
2019-04-13T03:54:28.380Z,1.30
2019-04-13T03:56:58.216Z,1.30
2019-04-13T03:59:28.106Z,1.40
2019-04-13T04:01:58.693Z,1.40
2019-04-13T04:04:28.754Z,1.50
2019-04-13T04:06:58.546Z,1.50
2019-04-13T04:09:28.408Z,1.60
2019-04-13T04:11:58.272Z,1.60
2019-04-13T04:14:28.067Z,1.50
2019-04-13T04:16:58.019Z,1.60
2019-04-13T04:19:28.355Z,1.60
2019-04-13T04:21:58.398Z,1.60
2019-04-13T04:24:28.365Z,1.70
2019-04-13T04:26:58.138Z,1.60
2019-04-13T04:29:27.939Z,1.70
2019-04-13T04:31:57.946Z,1.70
2019-04-13T04:34:28.023Z,1.70
2019-04-13T04:36:57.900Z,1.70
2019-04-13T04:39:27.885Z,1.60
2019-04-13T04:41:57.791Z,1.70
2019-04-13T04:44:27.620Z,1.70
2019-04-13T04:46:57.559Z,1.60
2019-04-13T04:49:27.351Z,1.60
2019-04-13T04:51:57.527Z,1.70
2019-04-13T04:54:27.687Z,1.70
2019-04-13T04:56:57.582Z,1.60
2019-04-13T04:59:27.664Z,1.50
2019-04-13T05:01:57.521Z,1.60
2019-04-13T05:04:27.302Z,1.70
2019-04-13T05:06:57.286Z,1.70
2019-04-13T05:09:27.258Z,1.80
2019-04-13T05:11:57.110Z,1.60
2019-04-13T05:14:27.130Z,1.70
2019-04-13T05:16:57.043Z,1.60
2019-04-13T05:19:28.283Z,1.60
2019-04-13T05:22:04.063Z,1.60
2019-04-13T05:24:37.509Z,1.60
2019-04-13T05:27:27.520Z,1.70
2019-04-13T05:29:58.345Z,1.70
2019-04-13T05:32:30.957Z,1.60
2019-04-13T05:35:06.676Z,1.60
2019-04-13T05:37:39.671Z,1.60
2019-04-13T05:40:10.609Z,1.70
2019-04-13T05:42:40.709Z,1.60
2019-04-13T05:45:11.079Z,1.70
2019-04-13T05:47:40.879Z,1.80
2019-04-13T05:50:10.890Z,1.70
2019-04-13T05:52:41.125Z,1.80
2019-04-13T05:55:11.229Z,1.90
2019-04-13T05:57:41.211Z,2.00
2019-04-13T06:00:12.803Z,2.10
2019-04-13T06:02:42.637Z,2.10
2019-04-13T06:05:12.690Z,2.30
2019-04-13T06:07:43.624Z,2.40
2019-04-13T06:10:13.588Z,2.50
2019-04-13T06:12:43.727Z,2.40
2019-04-13T06:15:14.202Z,2.40
2019-04-13T06:17:44.049Z,2.50
2019-04-13T06:20:15.328Z,2.60
2019-04-13T06:22:47.094Z,2.60
2019-04-13T06:25:17.233Z,2.60
2019-04-13T06:27:47.295Z,2.60
2019-04-13T06:30:48.551Z,2.60
2019-04-13T06:33:43.087Z,2.80
2019-04-13T06:36:13.081Z,2.80
2019-04-13T06:38:43.235Z,2.80
2019-04-13T06:41:13.098Z,3.00
2019-04-13T06:43:43.076Z,3.00
2019-04-13T06:46:12.867Z,3.10
2019-04-13T06:48:42.674Z,3.10
2019-04-13T06:51:12.885Z,3.40
2019-04-13T06:53:42.687Z,3.40
2019-04-13T06:56:12.499Z,3.60
2019-04-13T06:58:42.768Z,3.50
2019-04-13T07:01:12.552Z,3.70
2019-04-13T07:03:42.370Z,3.80
2019-04-13T07:06:12.273Z,3.70
2019-04-13T07:09:01.463Z,3.90
2019-04-13T07:12:08.040Z,3.90
2019-04-13T07:14:37.847Z,4.10
2019-04-13T07:17:14.450Z,4.30
2019-04-13T07:19:43.611Z,4.60
2019-04-13T07:22:13.438Z,4.70
2019-04-13T07:24:44.236Z,4.70
2019-04-13T07:27:14.378Z,4.70
2019-04-13T07:29:44.310Z,4.80
2019-04-13T07:32:14.317Z,4.30
2019-04-13T07:34:44.174Z,4.40
2019-04-13T07:37:14.108Z,4.30
2019-04-13T07:39:48.092Z,4.10
2019-04-13T07:42:15.609Z,4.40
2019-04-13T07:45:07.386Z,4.60
2019-04-13T07:47:48.007Z,4.50
2019-04-13T07:50:36.736Z,4.50
2019-04-13T07:53:09.745Z,4.90
2019-04-13T07:55:39.709Z,5.30
2019-04-13T07:58:10.041Z,5.40
2019-04-13T08:00:40.994Z,5.30
2019-04-13T08:03:11.350Z,5.30
2019-04-13T08:05:41.180Z,5.00
2019-04-13T08:08:11.056Z,5.00
2019-04-13T08:10:44.729Z,4.70
2019-04-13T08:13:14.969Z,4.70
2019-04-13T08:15:44.975Z,4.70
2019-04-13T08:18:22.197Z,4.80
2019-04-13T08:20:52.030Z,4.80
2019-04-13T08:23:22.139Z,4.90
2019-04-13T08:25:52.060Z,5.20
2019-04-13T08:28:21.906Z,5.90
2019-04-13T08:30:51.723Z,6.20
2019-04-13T08:33:21.641Z,6.60
2019-04-13T08:35:51.508Z,6.60
2019-04-13T08:38:21.392Z,6.80
2019-04-13T08:40:51.255Z,6.80
2019-04-13T08:43:21.197Z,7.00
2019-04-13T08:45:51.073Z,7.40
2019-04-13T08:48:22.067Z,7.00
2019-04-13T08:50:51.849Z,6.90
2019-04-13T08:53:23.191Z,6.90
2019-04-13T08:55:53.081Z,6.70
2019-04-13T08:58:23.886Z,6.30
2019-04-13T09:00:53.730Z,6.30
2019-04-13T09:03:23.602Z,6.10
2019-04-13T09:05:53.403Z,6.00
2019-04-13T09:08:29.882Z,6.10
2019-04-13T09:10:55.773Z,6.40
2019-04-13T09:13:30.087Z,7.10
2019-04-13T09:15:57.782Z,7.30
2019-04-13T09:18:46.693Z,7.00
2019-04-13T09:21:24.643Z,6.80
2019-04-13T09:23:54.254Z,6.30
2019-04-13T09:26:24.356Z,6.30
2019-04-13T09:28:54.522Z,6.40
2019-04-13T09:31:25.489Z,6.00
2019-04-13T09:33:56.181Z,6.00
2019-04-13T09:36:28.652Z,6.10
2019-04-13T09:38:57.958Z,5.80
2019-04-13T09:41:27.841Z,5.80
2019-04-13T09:44:15.786Z,6.00
2019-04-13T09:46:46.297Z,5.90
2019-04-13T09:49:19.533Z,6.10
2019-04-13T09:51:48.312Z,6.50
2019-04-13T09:54:26.590Z,6.50
2019-04-13T09:56:56.471Z,6.80
2019-04-13T09:59:27.712Z,7.00
2019-04-13T10:01:57.621Z,7.30
2019-04-13T10:04:27.650Z,7.50
2019-04-13T10:06:57.533Z,7.20
2019-04-13T10:09:27.610Z,7.00
2019-04-13T10:12:10.335Z,6.90
2019-04-13T10:15:01.951Z,6.60
2019-04-13T10:17:45.007Z,6.40
2019-04-13T10:20:15.239Z,6.10
2019-04-13T10:22:45.152Z,7.10
2019-04-13T10:25:15.179Z,8.50
2019-04-13T10:27:47.633Z,8.90
2019-04-13T10:30:20.058Z,8.40
2019-04-13T10:32:48.779Z,8.30
2019-04-13T10:35:20.220Z,8.50
2019-04-13T10:37:50.043Z,8.60
2019-04-13T10:40:20.100Z,9.20
2019-04-13T10:42:49.942Z,10.30
2019-04-13T10:45:41.655Z,9.60
2019-04-13T10:48:25.132Z,9.00
2019-04-13T10:50:58.722Z,8.70
2019-04-13T10:53:30.615Z,9.30
2019-04-13T10:56:03.838Z,9.80
2019-04-13T10:58:34.305Z,9.00
2019-04-13T11:01:04.085Z,8.60
2019-04-13T11:03:34.374Z,7.80
2019-04-13T11:06:08.579Z,7.70
2019-04-13T11:08:36.216Z,7.20
2019-04-13T11:11:06.924Z,6.90
2019-04-13T11:13:36.730Z,6.80
2019-04-13T11:16:06.532Z,7.00
2019-04-13T11:18:40.087Z,7.10
2019-04-13T11:21:09.943Z,6.80
2019-04-13T11:23:45.062Z,7.10
2019-04-13T11:26:11.533Z,7.40
2019-04-13T11:28:41.426Z,7.90
2019-04-13T11:31:11.418Z,8.20
2019-04-13T11:33:42.739Z,9.30
2019-04-13T11:36:12.805Z,10.20
2019-04-13T11:38:42.721Z,10.80
2019-04-13T11:41:30.735Z,11.80
2019-04-13T11:44:20.279Z,12.30
2019-04-13T11:47:11.284Z,12.70
2019-04-13T11:49:41.641Z,12.20
2019-04-13T11:52:13.254Z,12.80
2019-04-13T11:54:43.219Z,13.10
2019-04-13T11:57:15.256Z,12.80
2019-04-13T11:59:44.872Z,12.50
2019-04-13T12:02:35.095Z,12.10
2019-04-13T12:05:39.670Z,11.60
2019-04-13T12:08:13.402Z,11.20
2019-04-13T12:11:05.052Z,10.90
2019-04-13T12:13:55.679Z,10.40
2019-04-13T12:16:52.950Z,10.10
2019-04-13T12:19:30.888Z,10.30
2019-04-13T12:22:25.770Z,10.50
2019-04-13T12:24:55.901Z,10.10
2019-04-13T12:27:26.221Z,9.80
2019-04-13T12:29:56.204Z,9.60
2019-04-13T12:32:33.855Z,9.10
2019-04-13T12:35:07.919Z,9.10
2019-04-13T12:37:36.072Z,9.00
2019-04-13T12:40:23.322Z,8.70
2019-04-13T12:42:58.075Z,8.70
2019-04-13T12:45:28.002Z,8.30
2019-04-13T12:48:01.649Z,8.20
2019-04-13T12:50:32.700Z,8.30
2019-04-13T12:53:02.559Z,8.30
2019-04-13T12:55:46.430Z,8.50
2019-04-13T12:58:36.427Z,8.60
2019-04-13T13:01:12.744Z,8.90
2019-04-13T13:03:49.729Z,9.20
2019-04-13T13:06:19.719Z,9.60
2019-04-13T13:08:49.760Z,9.80
2019-04-13T13:11:19.812Z,10.10
2019-04-13T13:13:52.485Z,9.80
2019-04-13T13:16:21.065Z,9.30
2019-04-13T13:18:50.935Z,8.60
2019-04-13T13:21:21.321Z,7.70
2019-04-13T13:23:51.878Z,6.70
2019-04-13T13:26:24.031Z,5.90
2019-04-13T13:28:53.451Z,5.30
2019-04-13T13:31:23.389Z,5.00
2019-04-13T13:33:53.426Z,5.10
2019-04-13T13:36:23.869Z,5.40
2019-04-13T13:38:53.723Z,5.50
2019-04-13T13:41:24.798Z,5.90
2019-04-13T13:43:54.690Z,6.30
2019-04-13T13:46:24.526Z,6.60
2019-04-13T13:48:54.537Z,7.10
2019-04-13T13:51:26.886Z,7.10
2019-04-13T13:53:56.687Z,6.90
2019-04-13T13:56:27.914Z,7.10
2019-04-13T13:59:03.998Z,7.40
2019-04-13T14:01:44.742Z,7.40
2019-04-13T14:04:14.712Z,7.10
2019-04-13T14:06:44.679Z,7.30
2019-04-13T14:09:14.967Z,7.20
2019-04-13T14:11:44.918Z,7.60
2019-04-13T14:14:14.814Z,7.70
2019-04-13T14:16:48.025Z,7.40
2019-04-13T14:19:17.705Z,7.40
2019-04-13T14:21:47.640Z,7.70
2019-04-13T14:24:17.741Z,8.00
2019-04-13T14:26:47.724Z,8.20
2019-04-13T14:29:18.709Z,7.80
2019-04-13T14:31:48.641Z,7.70
2019-04-13T14:34:18.606Z,7.90
2019-04-13T14:36:48.783Z,8.00
2019-04-13T14:39:18.707Z,8.20
2019-04-13T14:41:51.719Z,8.30
2019-04-13T14:44:20.251Z,8.60
2019-04-13T14:46:50.314Z,8.80
2019-04-13T14:49:20.201Z,9.40
2019-04-13T14:51:52.768Z,9.20
2019-04-13T14:54:26.970Z,9.10
2019-04-13T14:56:56.851Z,8.90
2019-04-13T14:59:26.775Z,8.70
2019-04-13T15:01:57.957Z,8.60
2019-04-13T15:04:27.895Z,8.80
2019-04-13T15:06:58.041Z,9.00
2019-04-13T15:09:28.054Z,8.80
2019-04-13T15:11:57.846Z,8.70
2019-04-13T15:14:28.128Z,8.60
2019-04-13T15:17:02.995Z,8.30
2019-04-13T15:19:38.200Z,7.80
2019-04-13T15:22:01.886Z,7.50
2019-04-13T15:24:32.758Z,6.30
2019-04-13T15:27:07.500Z,5.50
2019-04-13T15:29:36.708Z,5.40
2019-04-13T15:32:06.691Z,5.50
2019-04-13T15:34:37.980Z,5.70
2019-04-13T15:37:10.191Z,5.30
2019-04-13T15:39:43.621Z,5.40
2019-04-13T15:42:19.069Z,5.70
2019-04-13T15:44:48.337Z,5.30
2019-04-13T15:47:19.165Z,5.30
2019-04-13T15:49:50.835Z,5.60
2019-04-13T15:52:24.141Z,5.80
2019-04-13T15:55:00.658Z,6.00
2019-04-13T15:57:34.693Z,6.10
2019-04-13T16:00:08.872Z,6.10
2019-04-13T16:02:40.774Z,6.20
2019-04-13T16:05:11.585Z,6.20
2019-04-13T16:07:42.759Z,6.30
2019-04-13T16:10:37.353Z,6.20
2019-04-13T16:13:08.801Z,6.30
2019-04-13T16:15:40.236Z,6.20
2019-04-13T16:18:10.971Z,6.00
2019-04-13T16:20:42.187Z,6.00
2019-04-13T16:23:13.073Z,6.00
2019-04-13T16:25:44.450Z,6.00
2019-04-13T16:28:32.915Z,6.00
2019-04-13T16:31:20.474Z,6.10
2019-04-13T16:34:24.222Z,6.20
2019-04-13T16:37:11.677Z,6.00
2019-04-13T16:39:41.609Z,6.10
2019-04-13T16:42:22.471Z,6.10
2019-04-13T16:45:02.752Z,5.90
2019-04-13T16:47:41.461Z,5.90
2019-04-13T16:50:28.560Z,5.70
2019-04-13T16:53:06.062Z,5.70
2019-04-13T16:55:41.568Z,5.70
2019-04-13T16:58:21.540Z,5.70
2019-04-13T17:01:12.384Z,5.80
2019-04-13T17:03:50.191Z,5.80
2019-04-13T17:06:22.005Z,6.00
2019-04-13T17:08:51.870Z,6.00
2019-04-13T17:11:21.814Z,5.80
2019-04-13T17:13:53.325Z,5.90
2019-04-13T17:16:23.445Z,5.80
2019-04-13T17:19:18.484Z,5.90
2019-04-13T17:22:11.046Z,5.90
2019-04-13T17:24:59.878Z,5.90
2019-04-13T17:27:42.164Z,5.80
2019-04-13T17:30:36.001Z,5.70
2019-04-13T17:33:14.895Z,5.80
2019-04-13T17:35:48.462Z,5.90
2019-04-13T17:38:18.456Z,5.80
2019-04-13T17:40:59.390Z,5.90
2019-04-13T17:43:54.797Z,6.00
2019-04-13T17:46:55.699Z,5.90
2019-04-13T17:49:43.092Z,5.70
2019-04-13T17:52:30.349Z,5.20
2019-04-13T17:55:11.184Z,4.70
2019-04-13T17:58:00.373Z,3.90
2019-04-13T18:00:58.402Z,3.60
2019-04-13T18:03:47.204Z,3.60
2019-04-13T18:06:35.779Z,3.40
2019-04-13T18:09:26.338Z,3.30
2019-04-13T18:12:14.251Z,3.30
2019-04-13T18:14:54.122Z,3.60
2019-04-13T18:17:45.831Z,3.80
2019-04-13T18:20:15.853Z,4.10
2019-04-13T18:22:47.230Z,4.40
2019-04-13T18:25:30.031Z,4.60
2019-04-13T18:27:49.489Z,4.60
2019-04-13T18:30:32.475Z,4.60
2019-04-13T18:32:55.664Z,4.70
2019-04-13T18:35:25.485Z,4.70
2019-04-13T18:37:56.003Z,4.70
2019-04-13T18:40:26.721Z,4.70
2019-04-13T18:43:07.050Z,4.80
2019-04-13T18:45:28.677Z,4.80
2019-04-13T18:47:59.928Z,4.90
2019-04-13T18:50:31.024Z,4.80
2019-04-13T18:53:04.913Z,4.80
2019-04-13T18:55:33.012Z,4.90
2019-04-13T18:58:03.347Z,4.90
2019-04-13T19:00:34.218Z,4.90
2019-04-13T19:03:04.967Z,4.80
2019-04-13T19:05:34.890Z,4.70
2019-04-13T19:08:04.754Z,4.60
2019-04-13T19:10:35.104Z,4.60
2019-04-13T19:13:07.677Z,4.50
2019-04-13T19:15:37.639Z,4.50
2019-04-13T19:18:09.195Z,4.60
2019-04-13T19:20:39.326Z,4.50
2019-04-13T19:23:09.159Z,4.60
2019-04-13T19:25:39.410Z,4.60
2019-04-13T19:28:09.324Z,4.60
2019-04-13T19:30:39.560Z,4.50
2019-04-13T19:33:10.432Z,4.50
2019-04-13T19:35:40.265Z,4.50
2019-04-13T19:38:10.121Z,4.30
2019-04-13T19:40:40.863Z,4.20
2019-04-13T19:43:16.385Z,4.20
2019-04-13T19:45:42.155Z,4.20
2019-04-13T19:48:12.055Z,4.30
2019-04-13T19:50:41.971Z,4.30
2019-04-13T19:53:27.858Z,4.30
2019-04-13T19:55:59.278Z,4.30
2019-04-13T19:58:29.083Z,4.30
2019-04-13T20:01:01.399Z,4.30
2019-04-13T20:03:30.894Z,4.30
2019-04-13T20:06:00.738Z,4.40
2019-04-13T20:08:30.737Z,4.50
2019-04-13T20:11:00.860Z,4.30
2019-04-13T20:13:41.625Z,4.30
2019-04-13T20:16:02.226Z,4.10
2019-04-13T20:18:32.748Z,4.00
2019-04-13T20:21:02.694Z,3.90
2019-04-13T20:23:37.943Z,3.90
2019-04-13T20:26:07.904Z,3.90
2019-04-13T20:28:38.045Z,4.00
2019-04-13T20:31:07.975Z,4.00
2019-04-13T20:33:37.790Z,3.90
2019-04-13T20:36:14.009Z,3.80
2019-04-13T20:38:39.265Z,3.90
2019-04-13T20:41:19.183Z,3.80
2019-04-13T20:43:57.628Z,3.70
2019-04-13T20:46:21.734Z,3.60
2019-04-13T20:48:51.490Z,3.60
2019-04-13T20:51:21.447Z,3.70
2019-04-13T20:53:51.701Z,3.80
2019-04-13T20:56:22.851Z,3.70
2019-04-13T20:58:53.287Z,3.80
2019-04-13T21:01:23.525Z,3.80
2019-04-13T21:03:53.542Z,3.80
2019-04-13T21:06:23.999Z,3.80
2019-04-13T21:08:55.824Z,3.80
2019-04-13T21:11:25.800Z,3.80
2019-04-13T21:14:02.633Z,3.70
2019-04-13T21:16:27.808Z,3.70
2019-04-13T21:18:58.152Z,3.70
2019-04-13T21:21:28.360Z,3.70
2019-04-13T21:23:58.381Z,3.60
2019-04-13T21:26:28.687Z,3.60
2019-04-13T21:28:58.640Z,3.50
2019-04-13T21:31:28.456Z,3.50
2019-04-13T21:33:58.799Z,3.50
2019-04-13T21:36:28.585Z,3.40
2019-04-13T21:38:58.479Z,3.40
2019-04-13T21:41:30.204Z,3.40
2019-04-13T21:44:15.271Z,3.30
2019-04-13T21:46:32.751Z,3.30
2019-04-13T21:49:03.258Z,3.30
2019-04-13T21:51:46.546Z,3.30
2019-04-13T21:54:30.147Z,3.30
2019-04-13T21:57:00.239Z,3.30
2019-04-13T21:59:30.283Z,3.30
2019-04-13T22:02:31.655Z,3.20
2019-04-13T22:05:02.988Z,3.20
2019-04-13T22:07:33.107Z,3.30
2019-04-13T22:10:03.326Z,3.30
2019-04-13T22:12:33.171Z,3.30
2019-04-13T22:15:07.442Z,3.40
2019-04-13T22:17:35.643Z,3.50
2019-04-13T22:20:06.323Z,3.60
2019-04-13T22:22:36.140Z,3.60
2019-04-13T22:25:08.116Z,3.60
2019-04-13T22:27:49.479Z,3.60
2019-04-13T22:30:14.725Z,3.60
2019-04-13T22:32:49.604Z,3.70
2019-04-13T22:35:50.558Z,3.60
2019-04-13T22:38:20.379Z,3.60
2019-04-13T22:40:51.601Z,3.60
2019-04-13T22:43:21.739Z,3.60
2019-04-13T22:45:51.627Z,3.60
2019-04-13T22:48:28.985Z,3.60
2019-04-13T22:51:20.580Z,3.50
2019-04-13T22:54:10.040Z,3.50
2019-04-13T22:56:44.411Z,3.50
2019-04-13T22:59:14.629Z,3.60
2019-04-13T23:01:50.549Z,3.70
2019-04-13T23:04:21.191Z,3.60
2019-04-13T23:06:51.127Z,3.60
2019-04-13T23:09:21.415Z,3.60
2019-04-13T23:11:51.975Z,3.60
2019-04-13T23:14:22.259Z,3.50
2019-04-13T23:16:52.147Z,3.70
2019-04-13T23:19:22.086Z,3.70
2019-04-13T23:21:52.960Z,3.60
2019-04-13T23:24:23.533Z,3.60
2019-04-13T23:26:53.940Z,3.60
2019-04-13T23:29:23.806Z,3.60
2019-04-13T23:31:54.350Z,3.50
2019-04-13T23:34:24.626Z,3.60
2019-04-13T23:36:55.196Z,3.60
2019-04-13T23:39:25.669Z,3.60
2019-04-13T23:41:56.184Z,3.50
2019-04-13T23:44:26.773Z,3.50
2019-04-13T23:46:56.884Z,3.40
2019-04-13T23:49:27.715Z,3.30
2019-04-13T23:51:57.953Z,3.40
2019-04-13T23:54:32.449Z,3.30
2019-04-13T23:57:20.314Z,3.30
